Time;durP1;ratioP1;P1;durP2;ratioP2;P2;SDS_P1;SDS_P2;PMS_P1;PMS_P2;Temp;Humidity;BMP_temperature;BMP_pressure;BME280_temperature;BME280_humidity;BME280_pressure;Samples;Min_cycle;Max_cycle;Signal;HPM_P1;HPM_P2
2024/04/02 00:00:03;;;;;;;0.00;0.00;;;19.20;52.30;;;;;;5028970;28;20257;-46
2024/04/02 00:02:36;;;;;;;0.00;0.00;;;19.30;52.30;;;;;;5028706;28;20200;-46
2024/04/02 00:05:05;;;;;;;0.10;0.10;;;19.30;52.20;;;;;;5027870;28;20346;-46
2024/04/02 00:07:36;;;;;;;0.15;0.15;;;19.40;52.10;;;;;;5027867;28;20232;-46
2024/04/02 00:10:05;;;;;;;0.00;0.00;;;19.40;52.10;;;;;;5027734;28;20235;-48
2024/04/02 00:12:36;;;;;;;0.00;0.00;;;19.40;52.10;;;;;;5027865;28;20238;-47
2024/04/02 00:15:06;;;;;;;0.00;0.00;;;19.40;52.10;;;;;;5029043;28;20203;-47
2024/04/02 00:17:39;;;;;;;0.00;0.00;;;19.50;52.10;;;;;;5030765;28;20763;-46
2024/04/02 00:20:08;;;;;;;0.00;0.00;;;19.50;52.10;;;;;;5031630;28;20211;-46
2024/04/02 00:22:39;;;;;;;0.10;0.10;;;19.50;52.00;;;;;;5031792;28;20626;-45
2024/04/02 00:25:08;;;;;;;0.03;0.03;;;19.50;51.80;;;;;;5031511;28;20199;-47
2024/04/02 00:27:39;;;;;;;0.10;0.10;;;19.60;51.70;;;;;;5031091;28;20239;-47
2024/04/02 00:30:08;;;;;;;0.10;0.10;;;19.60;51.60;;;;;;5030749;28;20204;-47
2024/04/02 00:32:41;;;;;;;0.10;0.10;;;19.60;51.60;;;;;;5031231;28;20306;-46
2024/04/02 00:35:10;;;;;;;0.00;0.00;;;19.60;51.50;;;;;;5030332;28;20262;-47
2024/04/02 00:37:41;;;;;;;0.00;0.00;;;19.60;51.30;;;;;;5031867;28;20656;-46
2024/04/02 00:40:10;;;;;;;0.00;0.00;;;19.60;51.30;;;;;;5031499;28;20254;-46
2024/04/02 00:42:41;;;;;;;0.10;0.10;;;19.60;51.00;;;;;;5031526;28;20200;-46
2024/04/02 00:45:10;;;;;;;0.00;0.00;;;19.60;50.90;;;;;;5031252;28;20590;-46
2024/04/02 00:47:43;;;;;;;0.03;0.03;;;19.70;50.70;;;;;;5031135;28;20285;-45
2024/04/02 00:50:14;;;;;;;0.10;0.10;;;19.60;50.60;;;;;;5031497;28;20656;-45
2024/04/02 00:52:45;;;;;;;0.00;0.00;;;19.70;50.70;;;;;;5030207;28;20196;-46
2024/04/02 00:55:14;;;;;;;0.00;0.00;;;19.70;50.70;;;;;;5030379;28;20571;-45
2024/04/02 00:57:45;;;;;;;0.10;0.10;;;19.70;50.70;;;;;;5030932;28;20217;-46
2024/04/02 01:00:15;;;;;;;0.00;0.00;;;19.70;50.60;;;;;;5031162;28;20250;-46
2024/04/02 01:02:48;;;;;;;0.00;0.00;;;19.80;50.60;;;;;;5030731;28;20246;-45
2024/04/02 01:05:19;;;;;;;0.10;0.10;;;19.80;50.50;;;;;;5030181;28;20553;-46
2024/04/02 01:07:48;;;;;;;0.08;0.08;;;19.80;50.40;;;;;;5030681;28;20236;-47
2024/04/02 01:10:19;;;;;;;0.03;0.03;;;19.80;50.30;;;;;;5030562;28;20204;-46
2024/04/02 01:12:48;;;;;;;0.00;0.00;;;19.80;50.20;;;;;;5030688;28;20541;-46
2024/04/02 01:15:24;;;;;;;0.10;0.10;;;19.90;50.30;;;;;;5030610;28;20246;-46
2024/04/02 01:17:55;;;;;;;0.00;0.00;;;19.80;50.30;;;;;;5031000;28;20247;-54
2024/04/02 01:20:26;;;;;;;0.10;0.10;;;19.90;50.20;;;;;;5030860;28;20242;-47
2024/04/02 01:22:55;;;;;;;0.03;0.03;;;19.90;50.00;;;;;;5030693;28;20200;-46
2024/04/02 01:25:27;;;;;;;0.10;0.10;;;19.90;49.90;;;;;;5030737;28;20196;-47
2024/04/02 01:27:56;;;;;;;0.00;0.00;;;19.90;50.00;;;;;;5030835;28;20223;-48
2024/04/02 01:30:27;;;;;;;0.10;0.10;;;19.90;49.90;;;;;;5031202;28;20230;-47
2024/04/02 01:32:56;;;;;;;0.10;0.10;;;19.90;50.00;;;;;;5031069;28;20212;-48
2024/04/02 01:35:27;;;;;;;0.10;0.10;;;20.00;50.00;;;;;;5030729;28;20365;-50
2024/04/02 01:37:56;;;;;;;0.10;0.10;;;20.00;50.00;;;;;;5031019;28;20219;-45
2024/04/02 01:40:29;;;;;;;0.00;0.00;;;19.90;49.90;;;;;;5031218;28;20279;-46
2024/04/02 01:42:59;;;;;;;0.00;0.00;;;20.00;50.00;;;;;;5025814;28;20243;-46
2024/04/02 01:45:29;;;;;;;0.10;0.10;;;20.00;50.10;;;;;;5026033;28;20236;-47
2024/04/02 01:47:58;;;;;;;0.00;0.00;;;20.00;50.10;;;;;;5006863;28;20232;-45
2024/04/02 01:50:29;;;;;;;0.00;0.00;;;20.00;50.10;;;;;;5024634;28;20200;-49
2024/04/02 01:52:58;;;;;;;0.00;0.00;;;20.00;50.20;;;;;;5007407;28;20205;-46
2024/04/02 01:55:31;;;;;;;0.10;0.10;;;20.00;50.30;;;;;;5019116;28;20504;-46
2024/04/02 01:58:00;;;;;;;0.00;0.00;;;20.10;50.30;;;;;;5026879;28;20314;-47
2024/04/02 02:00:31;;;;;;;0.10;0.10;;;20.00;50.20;;;;;;5027352;28;20227;-48
2024/04/02 02:03:00;;;;;;;0.00;0.00;;;20.10;50.20;;;;;;5028520;28;20196;-46
2024/04/02 02:05:31;;;;;;;0.00;0.00;;;20.10;50.20;;;;;;5030844;28;20449;-46
2024/04/02 02:08:00;;;;;;;0.10;0.10;;;20.10;50.20;;;;;;5030507;28;20224;-47
2024/04/02 02:10:35;;;;;;;0.10;0.10;;;20.10;50.30;;;;;;5029458;28;20699;-46
2024/04/02 02:13:05;;;;;;;0.00;0.00;;;20.10;50.20;;;;;;5030248;28;20195;-46
2024/04/02 02:15:36;;;;;;;0.10;0.10;;;20.10;50.30;;;;;;5030186;28;20204;-47
2024/04/02 02:18:05;;;;;;;0.00;0.00;;;20.10;50.40;;;;;;5029564;28;20298;-46
2024/04/02 02:20:36;;;;;;;0.00;0.00;;;20.20;50.30;;;;;;5030618;28;20204;-46
2024/04/02 02:23:05;;;;;;;0.00;0.00;;;20.20;50.40;;;;;;5030446;28;20234;-46
2024/04/02 02:25:38;;;;;;;0.00;0.00;;;20.20;50.40;;;;;;5030490;28;20210;-48
2024/04/02 02:28:08;;;;;;;0.10;0.10;;;20.20;50.50;;;;;;5030245;28;20238;-46
2024/04/02 02:30:38;;;;;;;0.00;0.00;;;20.20;50.60;;;;;;5030429;28;20207;-47
2024/04/02 02:33:08;;;;;;;0.05;0.05;;;20.20;50.50;;;;;;5029984;28;20731;-47
2024/04/02 02:35:39;;;;;;;0.10;0.10;;;20.30;51.10;;;;;;5029971;28;20524;-46
2024/04/02 02:38:08;;;;;;;0.00;0.00;;;20.30;50.60;;;;;;5030087;28;20234;-47
2024/04/02 02:40:41;;;;;;;0.10;0.10;;;20.30;50.50;;;;;;5030167;28;20207;-49
2024/04/02 02:43:12;;;;;;;0.05;0.05;;;20.30;50.50;;;;;;5029682;28;20200;-47
2024/04/02 02:45:52;;;;;;;0.10;0.10;;;20.40;50.40;;;;;;5029189;28;20606;-47
2024/04/02 02:48:21;;;;;;;0.10;0.10;;;20.40;50.10;;;;;;5029954;28;20322;-50
2024/04/02 02:50:52;;;;;;;0.00;0.00;;;20.40;50.10;;;;;;5029418;28;20204;-48
2024/04/02 02:53:23;;;;;;;0.00;0.00;;;20.40;50.10;;;;;;5030247;28;20200;-50
2024/04/02 02:55:58;;;;;;;0.10;0.10;;;20.50;50.00;;;;;;5030043;28;20208;-46
2024/04/02 02:58:29;;;;;;;0.03;0.03;;;20.50;49.90;;;;;;5029288;28;20723;-46
2024/04/02 03:00:58;;;;;;;0.00;0.00;;;20.50;49.90;;;;;;5029844;28;20617;-46
2024/04/02 03:03:28;;;;;;;0.00;0.00;;;20.60;49.80;;;;;;5029429;28;20203;-46
2024/04/02 03:05:58;;;;;;;0.00;0.00;;;20.60;49.70;;;;;;5029246;28;20203;-47
2024/04/02 03:08:29;;;;;;;0.10;0.10;;;20.60;49.60;;;;;;5028970;28;20236;-49
2024/04/02 03:11:03;;;;;;;0.00;0.00;;;20.70;49.70;;;;;;5029306;28;20212;-47
2024/04/02 03:13:35;;;;;;;0.10;0.10;;;20.70;49.50;;;;;;5028938;28;20200;-47
2024/04/02 03:16:04;;;;;;;0.00;0.00;;;20.70;49.40;;;;;;5028823;28;20204;-46
2024/04/02 03:18:36;;;;;;;0.00;0.00;;;20.70;49.30;;;;;;5028700;28;20726;-46
2024/04/02 03:21:06;;;;;;;0.03;0.03;;;20.70;49.40;;;;;;5029542;28;20656;-47
2024/04/02 03:23:36;;;;;;;0.08;0.08;;;20.80;49.40;;;;;;5029464;28;20460;-48
2024/04/02 03:26:07;;;;;;;0.10;0.10;;;20.80;49.30;;;;;;5029553;28;20208;-46
2024/04/02 03:28:39;;;;;;;0.00;0.00;;;20.80;49.20;;;;;;5029241;28;20232;-48
2024/04/02 03:31:08;;;;;;;0.00;0.00;;;20.80;49.10;;;;;;5029707;28;20208;-46
2024/04/02 03:33:39;;;;;;;0.00;0.00;;;20.90;49.10;;;;;;5029243;28;20212;-47
2024/04/02 03:36:09;;;;;;;0.00;0.00;;;20.90;49.10;;;;;;5028680;28;20582;-48
2024/04/02 03:38:39;;;;;;;0.00;0.00;;;20.90;49.10;;;;;;5028021;28;20251;-47
2024/04/02 03:41:16;;;;;;;0.00;0.00;;;20.90;49.10;;;;;;5028614;28;20623;-48
2024/04/02 03:43:47;;;;;;;0.00;0.00;;;20.90;49.00;;;;;;5009464;28;20220;-47
2024/04/02 03:46:18;;;;;;;0.00;0.00;;;21.00;49.60;;;;;;5009196;28;20228;-48
2024/04/02 03:48:49;;;;;;;0.10;0.10;;;21.00;48.90;;;;;;5008202;28;20268;-45
2024/04/02 03:51:20;;;;;;;0.05;0.05;;;21.00;48.90;;;;;;5009390;28;20574;-49
2024/04/02 03:53:49;;;;;;;0.10;0.10;;;21.00;48.90;;;;;;5019320;28;20279;-47
2024/04/02 03:56:28;;;;;;;0.10;0.10;;;21.00;48.90;;;;;;5028845;28;20680;-47
2024/04/02 03:58:57;;;;;;;0.10;0.10;;;21.00;49.00;;;;;;5025374;28;20226;-47
2024/04/02 04:01:28;;;;;;;0.00;0.00;;;21.00;49.10;;;;;;5029188;28;20319;-48
2024/04/02 04:03:57;;;;;;;0.00;0.00;;;21.00;49.10;;;;;;5029075;28;20215;-48
2024/04/02 04:06:28;;;;;;;0.00;0.00;;;21.10;49.00;;;;;;5028865;28;20204;-46
2024/04/02 04:08:57;;;;;;;0.10;0.10;;;21.10;49.00;;;;;;5026529;28;20231;-47
2024/04/02 04:11:30;;;;;;;0.00;0.00;;;21.10;49.10;;;;;;5027849;28;20996;-48
2024/04/02 04:14:01;;;;;;;0.10;0.10;;;21.10;49.10;;;;;;5028193;28;20200;-47
2024/04/02 04:16:32;;;;;;;0.10;0.10;;;21.10;49.10;;;;;;5028093;28;20281;-46
2024/04/02 04:19:01;;;;;;;0.10;0.10;;;21.10;49.00;;;;;;5028502;28;20291;-48
2024/04/02 04:21:32;;;;;;;0.00;0.00;;;21.10;48.90;;;;;;5028595;28;20631;-47
2024/04/02 04:24:01;;;;;;;0.00;0.00;;;21.20;48.90;;;;;;5027924;28;20200;-46
2024/04/02 04:26:34;;;;;;;0.00;0.00;;;21.20;48.90;;;;;;5028055;28;20265;-47
2024/04/02 04:29:04;;;;;;;0.00;0.00;;;21.20;49.00;;;;;;5028378;28;20338;-49
2024/04/02 04:31:34;;;;;;;0.00;0.00;;;21.20;48.90;;;;;;5028223;28;20246;-48
2024/04/02 04:34:04;;;;;;;0.10;0.10;;;21.20;48.90;;;;;;5027714;28;20210;-47
2024/04/02 04:36:35;;;;;;;0.00;0.00;;;21.20;49.00;;;;;;5027523;28;20204;-47
2024/04/02 04:39:05;;;;;;;0.03;0.03;;;21.20;49.10;;;;;;5028059;28;20207;-47
2024/04/02 04:41:38;;;;;;;0.00;0.00;;;21.20;49.10;;;;;;5027914;28;20204;-48
2024/04/02 04:44:08;;;;;;;0.00;0.00;;;21.20;49.10;;;;;;5027832;28;20206;-46
2024/04/02 04:46:39;;;;;;;0.10;0.10;;;21.20;49.10;;;;;;5027914;28;20199;-46
2024/04/02 04:49:10;;;;;;;0.00;0.00;;;21.10;49.10;;;;;;5027085;28;20227;-46
2024/04/02 04:51:41;;;;;;;0.00;0.00;;;21.10;49.10;;;;;;5027811;28;20208;-46
2024/04/02 04:54:10;;;;;;;0.00;0.00;;;21.10;49.10;;;;;;5028302;28;20725;-45
2024/04/02 04:56:43;;;;;;;0.10;0.10;;;21.10;49.10;;;;;;5028106;28;20696;-46
2024/04/02 04:59:12;;;;;;;0.00;0.00;;;21.10;49.10;;;;;;5028168;28;20207;-49
2024/04/02 05:01:42;;;;;;;0.10;0.10;;;21.10;49.10;;;;;;5027497;28;20200;-46
2024/04/02 05:04:12;;;;;;;0.05;0.05;;;21.10;49.20;;;;;;5027960;28;20222;-49
2024/04/02 05:06:43;;;;;;;0.00;0.00;;;21.00;49.20;;;;;;5027544;28;20196;-48
2024/04/02 05:09:13;;;;;;;0.00;0.00;;;21.00;49.20;;;;;;5027183;28;20227;-49
2024/04/02 05:11:45;;;;;;;0.00;0.00;;;21.00;49.20;;;;;;5027308;28;20192;-49
2024/04/02 05:14:15;;;;;;;0.00;0.00;;;21.00;49.20;;;;;;5028113;28;20651;-48
2024/04/02 05:16:46;;;;;;;0.00;0.00;;;20.90;49.20;;;;;;5027992;28;20203;-47
2024/04/02 05:19:15;;;;;;;0.05;0.05;;;20.90;49.20;;;;;;5027634;28;20951;-47
2024/04/02 05:21:45;;;;;;;0.00;0.00;;;20.90;49.20;;;;;;5027586;28;20220;-46
2024/04/02 05:24:15;;;;;;;0.10;0.10;;;20.90;49.30;;;;;;5027609;28;20200;-48
2024/04/02 05:26:47;;;;;;;0.10;0.10;;;20.80;49.20;;;;;;5025417;28;20208;-48
2024/04/02 05:29:16;;;;;;;0.00;0.00;;;20.80;49.20;;;;;;5025253;28;20758;-46
2024/04/02 05:31:47;;;;;;;0.00;0.00;;;20.80;49.10;;;;;;5026038;28;20690;-48
2024/04/02 05:34:16;;;;;;;0.00;0.00;;;20.80;49.10;;;;;;5025589;28;20247;-46
2024/04/02 05:36:47;;;;;;;0.00;0.00;;;20.70;49.10;;;;;;5025299;28;20200;-46
2024/04/02 05:39:16;;;;;;;0.10;0.10;;;20.70;49.10;;;;;;5029082;28;20200;-46
2024/04/02 05:41:49;;;;;;;0.00;0.00;;;20.70;49.00;;;;;;5029336;28;20200;-46
2024/04/02 05:44:19;;;;;;;0.00;0.00;;;20.60;49.00;;;;;;5029017;28;20192;-46
2024/04/02 05:46:49;;;;;;;0.00;0.00;;;20.60;49.00;;;;;;5029632;28;20555;-47
2024/04/02 05:49:19;;;;;;;0.00;0.00;;;20.60;49.00;;;;;;5027433;28;20315;-49
2024/04/02 05:51:49;;;;;;;0.10;0.10;;;20.50;49.00;;;;;;5028553;28;20196;-46
2024/04/02 05:54:18;;;;;;;0.10;0.10;;;20.50;49.00;;;;;;5029253;28;20204;-47
2024/04/02 05:56:51;;;;;;;0.00;0.00;;;20.50;49.00;;;;;;5029273;28;20482;-62
2024/04/02 05:59:20;;;;;;;0.00;0.00;;;20.50;49.00;;;;;;5029218;28;20208;-64
2024/04/02 06:01:51;;;;;;;0.10;0.10;;;20.50;49.00;;;;;;5033691;28;20204;-49
2024/04/02 06:04:20;;;;;;;0.10;0.10;;;20.40;48.90;;;;;;5028595;28;20212;-46
2024/04/02 06:06:51;;;;;;;0.10;0.10;;;20.30;48.90;;;;;;5026152;28;20607;-46
2024/04/02 06:09:20;;;;;;;0.10;0.10;;;20.20;49.00;;;;;;5024993;28;20270;-47
2024/04/02 06:11:53;;;;;;;0.00;0.00;;;20.20;49.20;;;;;;5027763;28;20527;-46
2024/04/02 06:14:22;;;;;;;0.10;0.10;;;20.10;49.30;;;;;;5027463;28;20641;-46
2024/04/02 06:16:53;;;;;;;0.00;0.00;;;20.10;49.40;;;;;;5029428;28;20287;-46
2024/04/02 06:19:23;;;;;;;0.10;0.10;;;20.10;49.50;;;;;;5028864;28;20765;-47
2024/04/02 06:21:53;;;;;;;0.00;0.00;;;20.10;49.50;;;;;;5029455;28;20215;-46
2024/04/02 06:24:24;;;;;;;0.00;0.00;;;20.10;49.50;;;;;;5028681;28;20577;-47
2024/04/02 06:26:56;;;;;;;0.10;0.10;;;20.10;49.50;;;;;;5029312;28;20200;-47
2024/04/02 06:29:26;;;;;;;0.00;0.00;;;20.10;49.50;;;;;;5028325;28;20231;-45
2024/04/02 06:31:58;;;;;;;0.00;0.00;;;20.10;49.50;;;;;;5030534;28;20196;-46
2024/04/02 06:34:27;;;;;;;0.00;0.00;;;20.10;49.50;;;;;;5034152;28;20643;-47
2024/04/02 06:36:58;;;;;;;0.00;0.00;;;20.10;49.50;;;;;;5033940;28;20220;-46
2024/04/02 06:39:27;;;;;;;0.03;0.03;;;20.10;49.50;;;;;;5034967;28;20703;-46
2024/04/02 06:42:00;;;;;;;0.00;0.00;;;20.10;49.50;;;;;;5033821;28;20200;-45
2024/04/02 06:44:30;;;;;;;0.10;0.10;;;20.10;49.50;;;;;;5032973;28;20196;-46
2024/04/02 06:47:01;;;;;;;0.00;0.00;;;20.10;49.40;;;;;;5033596;28;20218;-46
2024/04/02 06:49:30;;;;;;;0.08;0.08;;;20.10;49.40;;;;;;5032344;28;20711;-47
2024/04/02 06:52:00;;;;;;;0.10;0.10;;;20.10;49.40;;;;;;5041590;28;20195;-47
2024/04/02 06:54:29;;;;;;;0.05;0.05;;;20.10;49.40;;;;;;5052979;28;20558;-46
2024/04/02 06:57:02;;;;;;;0.00;0.00;;;20.10;49.40;;;;;;5053276;28;20250;-46
2024/04/02 06:59:32;;;;;;;0.00;0.00;;;20.10;49.40;;;;;;5052571;28;20222;-46
2024/04/02 07:02:13;;;;;;;0.10;0.10;;;20.10;49.40;;;;;;5050861;28;20237;-46
2024/04/02 07:04:42;;;;;;;0.03;0.03;;;20.10;49.40;;;;;;5032899;28;20206;-47
2024/04/02 07:07:13;;;;;;;0.00;0.00;;;20.10;49.50;;;;;;5033146;28;20216;-46
2024/04/02 07:09:42;;;;;;;0.10;0.10;;;20.10;49.50;;;;;;5033265;28;20231;-47
2024/04/02 07:12:15;;;;;;;0.00;0.00;;;20.10;49.50;;;;;;5032891;28;20200;-46
2024/04/02 07:14:44;;;;;;;0.05;0.05;;;20.10;49.50;;;;;;5030745;28;20551;-47
2024/04/02 07:17:15;;;;;;;0.00;0.00;;;20.10;49.50;;;;;;5032476;28;20282;-47
2024/04/02 07:19:44;;;;;;;0.10;0.10;;;20.10;49.50;;;;;;5032493;28;20239;-46
2024/04/02 07:22:14;;;;;;;0.00;0.00;;;20.10;49.50;;;;;;5032015;28;20208;-46
2024/04/02 07:24:43;;;;;;;0.10;0.10;;;20.10;49.50;;;;;;5033042;28;20200;-46
2024/04/02 07:27:16;;;;;;;0.00;0.00;;;20.20;49.50;;;;;;5032816;28;20277;-45
2024/04/02 07:29:45;;;;;;;0.00;0.00;;;20.10;49.50;;;;;;5031913;28;20359;-46
2024/04/02 07:32:16;;;;;;;0.00;0.00;;;20.20;50.00;;;;;;5032679;28;20203;-46
2024/04/02 07:34:45;;;;;;;0.10;0.10;;;20.20;51.00;;;;;;5032756;28;20208;-46
2024/04/02 07:37:16;;;;;;;0.00;0.00;;;20.20;50.70;;;;;;5032424;28;20227;-45
2024/04/02 07:39:45;;;;;;;0.10;0.10;;;20.20;50.60;;;;;;5032484;28;20192;-44
2024/04/02 07:42:17;;;;;;;0.00;0.00;;;20.20;50.50;;;;;;5031968;28;20235;-46
2024/04/02 07:44:48;;;;;;;0.00;0.00;;;20.30;50.50;;;;;;5031863;28;20196;-44
2024/04/02 07:47:18;;;;;;;0.10;0.10;;;20.30;50.40;;;;;;5032483;28;20565;-46
2024/04/02 07:49:47;;;;;;;0.10;0.10;;;20.30;50.30;;;;;;5032669;28;20227;-45
2024/04/02 07:52:18;;;;;;;0.00;0.00;;;20.30;50.30;;;;;;5032268;28;20254;-46
2024/04/02 07:54:47;;;;;;;0.00;0.00;;;20.30;50.20;;;;;;5031696;28;20185;-45
2024/04/02 07:57:20;;;;;;;0.00;0.00;;;20.30;50.10;;;;;;5031486;28;20212;-46
2024/04/02 07:59:49;;;;;;;0.00;0.00;;;20.30;50.10;;;;;;5031066;28;20219;-46
2024/04/02 08:02:20;;;;;;;0.00;0.00;;;20.30;50.00;;;;;;5031519;28;20200;-44
2024/04/02 08:04:51;;;;;;;0.00;0.00;;;20.30;50.00;;;;;;5031967;28;20200;-45
2024/04/02 08:07:23;;;;;;;0.00;0.00;;;20.30;50.00;;;;;;5031897;28;20231;-44
2024/04/02 08:09:52;;;;;;;0.10;0.10;;;20.30;49.90;;;;;;5031520;28;20234;-45
2024/04/02 08:12:24;;;;;;;0.03;0.03;;;20.30;49.90;;;;;;5031168;28;20196;-45
2024/04/02 08:14:53;;;;;;;0.10;0.10;;;20.30;49.80;;;;;;5029484;28;20203;-45
2024/04/02 08:17:24;;;;;;;0.10;0.10;;;20.20;49.70;;;;;;5012332;28;20220;-46
2024/04/02 08:19:53;;;;;;;0.00;0.00;;;20.30;49.70;;;;;;5031369;28;20196;-45
2024/04/02 08:22:24;;;;;;;0.10;0.10;;;20.20;49.70;;;;;;5031769;28;20196;-46
2024/04/02 08:24:53;;;;;;;0.10;0.10;;;20.20;49.70;;;;;;5030485;28;20200;-45
2024/04/02 08:27:26;;;;;;;0.10;0.10;;;20.20;50.30;;;;;;5030894;28;20629;-45
2024/04/02 08:29:55;;;;;;;0.10;0.10;;;20.20;49.60;;;;;;5031590;28;20234;-45
2024/04/02 08:32:26;;;;;;;0.03;0.03;;;20.20;49.60;;;;;;5031766;28;20226;-45
2024/04/02 08:34:55;;;;;;;0.00;0.00;;;20.10;49.60;;;;;;5031631;28;20258;-45
2024/04/02 08:37:26;;;;;;;0.10;0.10;;;20.10;49.50;;;;;;5031754;28;20216;-46
2024/04/02 08:39:55;;;;;;;0.10;0.10;;;20.10;49.60;;;;;;5031795;28;20231;-47
2024/04/02 08:42:29;;;;;;;0.00;0.00;;;20.10;49.60;;;;;;5030906;28;20282;-45
2024/04/02 08:45:00;;;;;;;0.00;0.00;;;20.10;49.60;;;;;;5031323;28;20286;-47
2024/04/02 08:47:32;;;;;;;0.00;0.00;;;20.10;49.70;;;;;;5031171;28;20211;-46
2024/04/02 08:50:01;;;;;;;0.00;0.00;;;20.10;49.70;;;;;;5031300;28;20228;-48
2024/04/02 08:52:33;;;;;;;0.05;0.05;;;20.10;49.70;;;;;;5031227;28;20200;-50
2024/04/02 08:55:03;;;;;;;0.00;0.00;;;20.10;49.70;;;;;;5031076;28;20196;-48
2024/04/02 08:57:36;;;;;;;0.00;0.00;;;20.10;50.10;;;;;;5030826;28;20575;-47
2024/04/02 09:00:06;;;;;;;0.10;0.10;;;20.10;50.70;;;;;;5029862;28;20671;-45
2024/04/02 09:02:37;;;;;;;0.08;0.08;;;20.10;50.60;;;;;;5023924;28;20395;-46
2024/04/02 09:05:06;;;;;;;0.00;0.00;;;20.10;50.40;;;;;;5026369;28;20739;-47
2024/04/02 09:07:37;;;;;;;0.10;0.10;;;20.10;50.30;;;;;;5026023;28;20253;-46
2024/04/02 09:10:07;;;;;;;0.00;0.00;;;20.10;50.20;;;;;;5026105;28;20223;-45
2024/04/02 09:12:40;;;;;;;0.10;0.10;;;20.10;50.20;;;;;;5026868;28;20260;-49
2024/04/02 09:15:09;;;;;;;0.10;0.10;;;20.10;50.20;;;;;;5029883;28;20254;-49
2024/04/02 09:17:40;;;;;;;0.03;0.03;;;20.10;50.10;;;;;;5030176;28;20787;-47
2024/04/02 09:20:11;;;;;;;0.00;0.00;;;20.10;50.10;;;;;;5030152;28;20211;-48
2024/04/02 09:22:42;;;;;;;0.10;0.10;;;20.10;50.00;;;;;;5030338;28;20302;-49
2024/04/02 09:25:12;;;;;;;0.10;0.10;;;20.00;50.00;;;;;;5029702;28;20680;-46
2024/04/02 09:27:45;;;;;;;0.00;0.00;;;20.00;50.00;;;;;;5029561;28;20220;-49
2024/04/02 09:30:14;;;;;;;0.00;0.00;;;20.00;50.00;;;;;;5029374;28;20327;-48
2024/04/02 09:32:48;;;;;;;0.10;0.10;;;20.00;49.90;;;;;;5030041;28;20204;-50
2024/04/02 09:35:28;;;;;;;0.00;0.00;;;20.00;49.90;;;;;;5030003;28;20262;-48
2024/04/02 09:38:00;;;;;;;0.10;0.10;;;20.00;49.90;;;;;;5041715;23;20604;-47
2024/04/02 09:40:29;;;;;;;0.00;0.00;;;19.90;49.80;;;;;;5028726;28;20232;-46
2024/04/02 09:43:04;;;;;;;0.10;0.10;;;19.90;49.80;;;;;;5028363;28;20200;-47
2024/04/02 09:45:35;;;;;;;0.10;0.10;;;19.90;49.80;;;;;;5029636;28;20295;-48
2024/04/02 09:48:07;;;;;;;0.08;0.08;;;19.90;49.80;;;;;;5028880;28;20224;-48
2024/04/02 09:50:38;;;;;;;0.00;0.00;;;19.90;49.70;;;;;;5023807;28;20593;-45
2024/04/02 09:53:09;;;;;;;0.00;0.00;;;19.90;49.70;;;;;;5009524;28;20211;-47
2024/04/02 09:55:41;;;;;;;0.10;0.10;;;19.90;49.70;;;;;;5009775;28;20247;-46
2024/04/02 09:58:15;;;;;;;0.10;0.10;;;19.80;49.70;;;;;;5008871;28;20230;-47
2024/04/02 10:00:46;;;;;;;0.00;0.00;;;19.80;49.60;;;;;;5009503;28;20668;-49
2024/04/02 10:03:18;;;;;;;0.00;0.00;;;19.80;49.60;;;;;;5008999;28;20220;-46
2024/04/02 10:05:47;;;;;;;0.10;0.10;;;19.80;49.60;;;;;;5009721;28;20197;-46
2024/04/02 10:08:18;;;;;;;0.00;0.00;;;19.80;49.60;;;;;;5021526;28;20228;-47
2024/04/02 10:10:48;;;;;;;0.00;0.00;;;19.70;49.50;;;;;;5013530;28;20201;-46
2024/04/02 10:13:21;;;;;;;0.10;0.10;;;19.70;49.60;;;;;;5008655;28;20208;-46
2024/04/02 10:15:56;;;;;;;0.10;0.10;;;19.70;49.50;;;;;;5008388;28;20239;-47
2024/04/02 10:18:27;;;;;;;0.00;0.00;;;19.70;49.60;;;;;;5008427;28;20691;-48
2024/04/02 10:20:59;;;;;;;0.10;0.10;;;19.60;49.50;;;;;;5009228;28;20214;-46
2024/04/02 10:23:32;;;;;;;0.10;0.10;;;19.60;49.50;;;;;;5002220;28;20250;-46
2024/04/02 10:26:01;;;;;;;0.00;0.00;;;19.60;49.50;;;;;;5009251;28;20258;-46
2024/04/02 10:28:35;;;;;;;0.00;0.00;;;19.60;50.20;;;;;;5008925;28;20224;-47
2024/04/02 10:31:15;;;;;;;0.10;0.10;;;19.60;49.60;;;;;;5009068;28;20209;-46
2024/04/02 10:33:46;;;;;;;0.00;0.00;;;19.60;49.60;;;;;;5009310;28;20211;-47
2024/04/02 10:36:16;;;;;;;0.10;0.10;;;19.60;49.50;;;;;;5009161;28;20223;-45
2024/04/02 10:38:46;;;;;;;0.00;0.00;;;19.50;49.40;;;;;;5009361;28;20240;-49
2024/04/02 10:41:15;;;;;;;0.10;0.10;;;19.50;49.40;;;;;;5007961;28;20247;-46
2024/04/02 10:43:49;;;;;;;0.00;0.00;;;19.50;49.40;;;;;;5009030;28;20509;-47
2024/04/02 10:46:18;;;;;;;0.00;0.00;;;19.50;49.40;;;;;;5008520;28;20197;-47
2024/04/02 10:48:49;;;;;;;0.00;0.00;;;19.50;49.40;;;;;;5009013;28;20315;-47
2024/04/02 10:51:18;;;;;;;0.00;0.00;;;19.50;49.40;;;;;;5008142;28;20235;-47
2024/04/02 10:53:49;;;;;;;0.10;0.10;;;19.40;49.40;;;;;;5009151;28;20213;-47
2024/04/02 10:56:18;;;;;;;0.10;0.10;;;19.40;49.30;;;;;;5008733;28;20208;-45
2024/04/02 10:58:51;;;;;;;0.10;0.10;;;19.40;49.30;;;;;;5008938;28;20225;-46
2024/04/02 11:01:21;;;;;;;0.10;0.10;;;19.40;49.40;;;;;;5020008;28;20236;-49
2024/04/02 11:03:53;;;;;;;0.10;0.10;;;19.40;49.40;;;;;;5023397;28;20322;-46
2024/04/02 11:06:23;;;;;;;0.10;0.10;;;19.30;49.30;;;;;;5012889;28;20469;-46
2024/04/02 11:08:54;;;;;;;0.00;0.00;;;19.30;49.30;;;;;;5008685;28;20240;-47
2024/04/02 11:11:23;;;;;;;0.10;0.10;;;19.30;49.30;;;;;;5008693;28;20578;-47
2024/04/02 11:14:06;;;;;;;0.10;0.10;;;19.30;49.40;;;;;;5024883;28;20200;-47
2024/04/02 11:16:36;;;;;;;0.00;0.00;;;19.30;49.30;;;;;;5002574;28;20200;-46
2024/04/02 11:19:07;;;;;;;0.10;0.10;;;19.20;49.30;;;;;;5007861;28;20214;-47
2024/04/02 11:21:37;;;;;;;0.10;0.10;;;19.20;49.30;;;;;;5008331;28;20692;-46
2024/04/02 11:27:25;;;;;;;0.00;0.00;;;19.20;49.30;;;;;;4984987;28;20745;-46
2024/04/02 11:29:58;;;;;;;0.00;0.00;;;19.20;49.30;;;;;;4991032;28;20252;-45
2024/04/02 11:32:29;;;;;;;0.00;0.00;;;19.20;49.30;;;;;;5008712;28;20712;-44
2024/04/02 11:35:02;;;;;;;0.10;0.10;;;19.20;49.30;;;;;;5012378;28;20649;-46
2024/04/02 11:37:34;;;;;;;0.00;0.00;;;19.10;49.30;;;;;;5012914;28;20223;-46
2024/04/02 11:40:04;;;;;;;0.00;0.00;;;19.10;49.20;;;;;;5013435;28;20251;-46
2024/04/02 11:42:34;;;;;;;0.03;0.03;;;19.10;49.20;;;;;;5012826;28;20411;-46
2024/04/02 11:45:06;;;;;;;0.10;0.10;;;19.10;49.30;;;;;;5012767;28;20613;-46
2024/04/02 11:47:37;;;;;;;0.10;0.10;;;19.00;49.20;;;;;;5012032;28;21016;-46
2024/04/02 11:50:07;;;;;;;0.08;0.08;;;19.00;49.20;;;;;;5012565;28;20232;-45
2024/04/02 11:52:38;;;;;;;0.10;0.10;;;19.00;49.20;;;;;;5013066;28;20280;-46
2024/04/02 11:55:08;;;;;;;0.00;0.00;;;19.00;49.30;;;;;;5012583;28;20189;-46
2024/04/02 12:00:26;;;;;;;0.10;0.10;;;19.00;49.40;;;;;;5001000;28;20202;-46
2024/04/02 12:02:57;;;;;;;0.00;0.00;;;19.00;49.30;;;;;;5011668;28;20196;-47
2024/04/02 12:05:27;;;;;;;0.10;0.10;;;18.90;49.20;;;;;;5011392;28;20228;-46
2024/04/02 12:07:58;;;;;;;0.10;0.10;;;18.90;49.30;;;;;;5012052;28;20291;-47
2024/04/02 12:10:28;;;;;;;0.10;0.10;;;18.90;49.90;;;;;;5011380;28;20306;-46
2024/04/02 12:12:57;;;;;;;0.00;0.00;;;18.90;49.30;;;;;;5011911;28;20193;-48
2024/04/02 12:15:30;;;;;;;0.00;0.00;;;18.90;49.30;;;;;;5011990;28;20197;-47
2024/04/02 12:17:59;;;;;;;0.03;0.03;;;18.90;49.30;;;;;;5011683;28;20259;-46
2024/04/02 12:20:30;;;;;;;0.10;0.10;;;18.90;49.30;;;;;;5011159;28;20557;-46
2024/04/02 12:22:59;;;;;;;0.10;0.10;;;18.90;49.30;;;;;;5011520;28;20188;-46
2024/04/02 12:25:29;;;;;;;0.10;0.10;;;18.90;49.30;;;;;;5011561;28;20208;-46
2024/04/02 12:27:59;;;;;;;0.10;0.10;;;18.90;49.20;;;;;;5011406;28;20231;-47
2024/04/02 12:30:31;;;;;;;0.00;0.00;;;18.90;49.30;;;;;;5011319;28;20220;-46
2024/04/02 12:33:01;;;;;;;0.03;0.03;;;18.90;49.20;;;;;;5011256;28;20631;-47
2024/04/02 12:35:31;;;;;;;0.00;0.00;;;18.80;49.20;;;;;;5011291;28;20185;-46
2024/04/02 12:38:00;;;;;;;0.15;0.15;;;18.80;49.20;;;;;;5011495;28;20681;-46
2024/04/02 12:40:31;;;;;;;0.10;0.10;;;18.80;49.20;;;;;;5010843;28;20278;-45
2024/04/02 12:43:00;;;;;;;0.00;0.00;;;18.80;49.20;;;;;;5011339;28;20199;-46
2024/04/02 12:45:32;;;;;;;0.08;0.08;;;18.80;49.20;;;;;;5011786;28;20659;-45
2024/04/02 12:48:02;;;;;;;0.08;0.08;;;18.80;49.20;;;;;;5011067;28;20250;-45
2024/04/02 12:50:32;;;;;;;0.00;0.00;;;18.70;49.20;;;;;;5009007;28;20251;-45
2024/04/02 12:53:02;;;;;;;0.00;0.00;;;18.70;49.20;;;;;;5011510;28;20264;-45
2024/04/02 12:55:35;;;;;;;0.10;0.10;;;18.70;49.20;;;;;;5011262;28;20193;-46
2024/04/02 12:58:04;;;;;;;0.00;0.00;;;18.70;49.20;;;;;;5011296;28;20248;-45
2024/04/02 13:00:41;;;;;;;0.00;0.00;;;18.70;49.80;;;;;;5011172;28;20197;-46
2024/04/02 13:03:10;;;;;;;0.03;0.03;;;18.70;49.20;;;;;;5011202;28;20196;-45
2024/04/02 13:05:41;;;;;;;0.10;0.10;;;18.70;49.20;;;;;;5011985;28;20284;-46
2024/04/02 13:08:10;;;;;;;0.00;0.00;;;18.70;49.20;;;;;;5011899;28;20221;-45
2024/04/02 13:10:50;;;;;;;0.00;0.00;;;18.70;49.20;;;;;;5011879;28;20233;-46